Time;durP1;ratioP1;P1;durP2;ratioP2;P2;SDS_P1;SDS_P2;PMS_P1;PMS_P2;Temp;Humidity;BMP_temperature;BMP_pressure;BME280_temperature;BME280_humidity;BME280_pressure;Samples;Min_cycle;Max_cycle;Signal;HPM_P1;HPM_P2
2022/07/12 00:02:17;;;;;;;;;3.25;3.25;;;;;23.90;48.19;101334.31;6303705;22;45573;-57
2022/07/12 00:04:43;;;;;;;;;3.00;3.00;;;;;23.91;48.43;101338.72;6303539;22;45320;-56
2022/07/12 00:07:08;;;;;;;;;3.25;3.25;;;;;23.90;48.34;101334.31;6304869;22;45320;-59
2022/07/12 00:09:33;;;;;;;;;4.00;4.00;;;;;23.87;48.84;101326.53;6304508;22;45287;-56
2022/07/12 00:11:59;;;;;;;;;2.00;2.00;;;;;23.87;48.56;101321.16;6276085;22;46136;-55
2022/07/12 00:14:25;;;;;;;;;2.00;2.00;;;;;23.85;48.60;101325.78;6304614;22;45369;-55
2022/07/12 00:16:51;;;;;;;;;1.75;1.75;;;;;23.81;48.34;101318.97;6304457;22;45377;-54
2022/07/12 00:19:17;;;;;;;;;4.00;2.75;;;;;23.78;48.62;101318.25;6304467;22;45171;-60
2022/07/12 00:21:42;;;;;;;;;3.50;2.25;;;;;23.70;48.80;101311.81;6304483;22;46503;-60
2022/07/12 00:24:07;;;;;;;;;4.00;2.00;;;;;23.68;49.21;101314.66;6304608;22;45198;-67
2022/07/12 00:26:33;;;;;;;;;2.00;2.00;;;;;23.62;49.46;101318.69;6304632;22;45228;-67
2022/07/12 00:28:58;;;;;;;;;3.00;1.25;;;;;23.62;49.55;101329.44;6305668;22;45470;-58
2022/07/12 00:31:24;;;;;;;;;2.50;2.50;;;;;23.60;49.32;101330.56;6304549;22;45277;-55
2022/07/12 00:33:49;;;;;;;;;4.00;2.00;;;;;23.58;49.05;101322.63;6303871;22;45330;-61
2022/07/12 00:36:15;;;;;;;;;2.50;2.50;;;;;23.56;49.03;101321.06;6304205;22;45289;-56
2022/07/12 00:38:40;;;;;;;;;3.25;3.25;;;;;23.53;48.99;101314.09;6276217;22;45395;-57
2022/07/12 00:41:06;;;;;;;;;2.00;2.00;;;;;23.52;49.77;101314.25;6304228;22;46071;-55
2022/07/12 00:43:31;;;;;;;;;3.00;3.00;;;;;23.48;49.70;101317.19;6303601;22;45278;-61
2022/07/12 00:45:56;;;;;;;;;2.50;2.50;;;;;23.47;49.58;101318.16;6304311;22;45316;-60
2022/07/12 00:48:22;;;;;;;;;3.00;3.00;;;;;23.45;49.39;101305.84;6304603;22;45563;-56
2022/07/12 00:50:48;;;;;;;;;2.25;2.25;;;;;23.42;49.25;101304.28;6303921;22;46350;-61
2022/07/12 00:53:14;;;;;;;;;3.50;2.25;;;;;23.43;49.30;101308.66;6303878;22;45292;-55
2022/07/12 00:55:40;;;;;;;;;3.25;3.25;;;;;23.42;49.79;101311.47;6303973;22;45250;-65
2022/07/12 00:58:06;;;;;;;;;3.75;3.75;;;;;23.31;49.73;101290.88;6304031;22;45183;-57
2022/07/12 01:00:31;;;;;;;;;3.00;3.00;;;;;23.37;49.88;101303.81;6274970;22;47982;-56
2022/07/12 01:03:01;;;;;;;;;2.75;2.75;;;;;23.34;49.89;101299.53;6304176;22;45333;-56
2022/07/12 01:05:29;;;;;;;;;3.25;3.25;;;;;23.34;49.56;101306.75;6303919;22;45257;-62
2022/07/12 01:07:56;;;;;;;;;2.50;2.50;;;;;23.33;50.33;101294.31;6302843;22;45234;-63
2022/07/12 01:10:22;;;;;;;;;3.00;3.00;;;;;23.31;49.87;101298.94;6275337;22;46521;-63
2022/07/12 01:12:48;;;;;;;;;4.00;3.75;;;;;23.29;49.77;101306.25;6303423;22;45171;-57
2022/07/12 01:15:14;;;;;;;;;3.25;3.25;;;;;23.28;50.34;101305.41;6304062;22;45192;-54
2022/07/12 01:17:39;;;;;;;;;3.25;3.25;;;;;23.27;50.22;101306.41;6304379;22;45136;-61
2022/07/12 01:20:06;;;;;;;;;2.25;2.25;;;;;23.27;50.18;101310.91;6303548;22;45609;-54
2022/07/12 01:22:34;;;;;;;;;5.00;5.00;;;;;23.24;49.85;101300.41;6303937;22;45418;-59
2022/07/12 01:25:01;;;;;;;;;5.25;3.75;;;;;23.24;50.15;101308.47;6304187;22;45373;-53
2022/07/12 01:27:27;;;;;;;;;2.50;2.25;;;;;23.23;50.17;101306.72;6303721;22;45568;-56
2022/07/12 01:29:52;;;;;;;;;2.75;2.75;;;;;23.03;50.25;101277.03;6304510;22;45201;-56
2022/07/12 01:32:24;;;;;;;;;2.75;2.75;;;;;23.20;50.29;101303.31;6304290;22;45227;-58
2022/07/12 01:34:53;;;;;;;;;5.00;3.25;;;;;23.19;50.22;101300.78;6275757;22;45347;-62
2022/07/12 01:37:20;;;;;;;;;5.25;5.25;;;;;23.16;50.77;101304.56;6303870;22;45134;-68
2022/07/12 01:39:47;;;;;;;;;3.00;1.00;;;;;23.17;50.49;101300.91;6303610;22;46262;-65
2022/07/12 01:42:13;;;;;;;;;3.00;3.00;;;;;23.09;50.68;101289.09;6304063;22;45291;-61
2022/07/12 01:44:38;;;;;;;;;3.75;3.00;;;;;23.14;50.73;101297.63;6276868;22;45283;-55
2022/07/12 01:47:04;;;;;;;;;3.75;3.75;;;;;23.12;50.29;101296.91;6304513;22;45286;-58
2022/07/12 01:49:29;;;;;;;;;2.75;2.75;;;;;23.11;50.49;101298.72;6303894;22;45314;-58
2022/07/12 01:51:55;;;;;;;;;3.00;3.00;;;;;23.09;50.65;101295.31;6303410;22;45175;-59
2022/07/12 01:54:21;;;;;;;;;3.00;3.00;;;;;23.08;50.96;101298.97;6303804;22;45265;-57
2022/07/12 01:56:46;;;;;;;;;7.00;6.00;;;;;23.03;50.96;101296.69;6303639;22;45234;-56
2022/07/12 01:59:12;;;;;;;;;5.75;5.75;;;;;22.94;50.55;101293.88;6303442;22;46050;-54
2022/07/12 02:01:38;;;;;;;;;5.75;4.25;;;;;23.00;50.73;101306.81;6304143;22;45229;-55
2022/07/12 02:04:04;;;;;;;;;5.00;5.00;;;;;22.97;51.02;101302.56;6303767;22;45432;-57
2022/07/12 02:06:30;;;;;;;;;5.00;5.00;;;;;22.95;51.42;101303.66;6304182;22;45289;-54
2022/07/12 02:08:55;;;;;;;;;4.75;4.75;;;;;22.94;51.12;101296.56;6275763;22;47352;-61
2022/07/12 02:11:20;;;;;;;;;4.25;4.00;;;;;22.91;51.21;101303.91;6303116;22;45431;-54
2022/07/12 02:13:46;;;;;;;;;4.25;4.25;;;;;22.86;51.06;101306.09;6303776;22;45392;-52
2022/07/12 02:16:11;;;;;;;;;4.50;4.50;;;;;22.84;51.47;101307.22;6303562;22;45302;-53
2022/07/12 02:18:36;;;;;;;;;4.00;4.00;;;;;22.74;51.58;101301.72;6274904;22;46281;-50
2022/07/12 02:21:02;;;;;;;;;4.00;4.00;;;;;22.73;51.79;101297.34;6279014;22;45291;-50
2022/07/12 02:23:28;;;;;;;;;3.50;3.50;;;;;22.73;51.96;101302.72;6306608;22;45261;-53
2022/07/12 02:25:53;;;;;;;;;4.00;4.00;;;;;22.69;51.87;101301.25;6307222;22;45451;-72
2022/07/12 02:28:18;;;;;;;;;4.00;4.00;;;;;22.61;51.84;101294.69;6307132;22;46166;-63
2022/07/12 02:30:43;;;;;;;;;4.00;4.00;;;;;22.61;52.06;101310.75;6307094;22;45239;-69
2022/07/12 02:33:09;;;;;;;;;3.25;3.25;;;;;22.57;52.31;101303.06;6307406;22;45265;-72
2022/07/12 02:35:34;;;;;;;;;4.25;4.00;;;;;22.51;52.48;101304.44;6308475;22;45259;-71
2022/07/12 02:37:59;;;;;;;;;3.50;3.50;;;;;22.45;52.29;101299.56;6308777;22;46368;-74
2022/07/12 02:43:09;;;;;;;;;4.00;4.00;;;;;22.40;52.72;101301.72;6312886;22;45284;-69
2022/07/12 02:45:35;;;;;;;;;5.00;5.00;;;;;22.33;53.01;101298.66;6317942;22;45204;-72
2022/07/12 02:48:00;;;;;;;;;3.00;3.00;;;;;22.31;52.92;101303.28;6314567;22;46203;-71
2022/07/12 02:50:26;;;;;;;;;2.75;2.75;;;;;22.26;52.93;101302.81;6306806;22;45732;-73
2022/07/12 02:52:51;;;;;;;;;4.00;4.00;;;;;22.21;53.33;101305.00;6306920;22;45166;-68
2022/07/12 02:55:16;;;;;;;;;3.00;3.00;;;;;22.19;53.24;101313.13;6307432;22;45337;-71
2022/07/12 02:57:42;;;;;;;;;3.00;3.00;;;;;22.15;53.38;101312.53;6304798;22;47156;-73
2022/07/12 03:00:08;;;;;;;;;4.25;4.25;;;;;22.10;53.54;101324.56;6307072;22;45198;-68
2022/07/12 03:02:33;;;;;;;;;4.00;4.00;;;;;22.08;53.64;101318.47;6278938;22;45319;-64
2022/07/12 03:04:58;;;;;;;;;6.00;4.75;;;;;22.06;53.49;101312.38;6306423;22;45239;-64
2022/07/12 03:07:24;;;;;;;;;6.00;4.75;;;;;22.03;53.97;101316.16;6306368;22;45216;-62
2022/07/12 03:09:49;;;;;;;;;7.00;7.00;;;;;22.00;54.05;101319.91;6306147;22;49128;-73
2022/07/12 03:12:14;;;;;;;;;6.00;4.50;;;;;21.98;53.63;101324.53;6307341;22;45183;-71
2022/07/12 03:14:40;;;;;;;;;7.00;5.50;;;;;21.93;54.19;101317.84;6308729;22;45361;-72
2022/07/12 03:17:05;;;;;;;;;4.00;4.00;;;;;21.93;54.07;101324.03;6307404;22;45776;-72
2022/07/12 03:19:30;;;;;;;;;5.75;4.00;;;;;21.92;53.95;101318.81;6279524;22;45348;-69
2022/07/12 03:21:56;;;;;;;;;4.75;4.75;;;;;21.92;54.12;101316.16;6306884;22;45246;-71
2022/07/12 03:24:21;;;;;;;;;4.00;3.75;;;;;21.92;53.98;101327.69;6307774;22;45356;-72
2022/07/12 03:26:46;;;;;;;;;5.50;5.50;;;;;21.91;54.11;101326.00;6307627;22;45337;-68
2022/07/12 03:29:12;;;;;;;;;3.75;3.75;;;;;21.87;54.31;101317.34;6306991;22;45267;-69
2022/07/12 03:31:37;;;;;;;;;8.50;5.50;;;;;21.87;54.41;101320.03;6306315;22;45284;-67
2022/07/12 03:34:03;;;;;;;;;4.75;4.75;;;;;21.85;54.44;101316.63;6306268;22;45474;-70
2022/07/12 03:36:28;;;;;;;;;4.25;4.25;;;;;21.85;54.32;101321.97;6304101;22;46049;-68
2022/07/12 03:38:54;;;;;;;;;4.00;4.00;;;;;21.82;54.43;101321.34;6304546;22;45360;-60
2022/07/12 03:41:19;;;;;;;;;5.25;4.75;;;;;21.80;54.32;101321.47;6304725;22;45375;-54
2022/07/12 03:43:44;;;;;;;;;5.00;5.00;;;;;21.80;54.36;101324.16;6276549;22;45263;-53
2022/07/12 03:46:10;;;;;;;;;7.25;6.00;;;;;21.77;54.38;101327.06;6276963;22;47382;-74
2022/07/12 03:48:35;;;;;;;;;3.50;3.50;;;;;21.73;54.26;101326.44;6305311;22;45246;-67
2022/07/12 03:51:01;;;;;;;;;5.00;5.00;;;;;21.71;54.44;101328.38;6304306;22;45316;-72
2022/07/12 03:53:26;;;;;;;;;3.00;3.00;;;;;21.66;54.69;101330.53;6304885;22;45150;-68
2022/07/12 03:55:51;;;;;;;;;4.50;4.50;;;;;21.65;55.00;101344.91;6304935;22;45215;-72
2022/07/12 03:58:17;;;;;;;;;5.00;5.00;;;;;21.63;54.98;101341.47;6275831;22;45255;-71
2022/07/12 04:00:42;;;;;;;;;5.00;5.00;;;;;21.61;54.98;101335.34;6304593;22;45205;-71
2022/07/12 04:03:10;;;;;;;;;5.00;5.00;;;;;21.60;54.61;101339.00;6304946;22;45481;-71
2022/07/12 04:05:36;;;;;;;;;3.00;3.00;;;;;21.60;55.23;101344.34;6304096;22;46247;-71
2022/07/12 04:08:02;;;;;;;;;4.50;4.50;;;;;21.58;55.02;101346.28;6303947;22;45345;-71
2022/07/12 04:10:28;;;;;;;;;5.75;5.75;;;;;21.51;55.25;101335.19;6305296;22;45229;-65
2022/07/12 04:12:53;;;;;;;;;6.00;5.00;;;;;21.56;55.31;101348.22;6276896;22;45260;-55
2022/07/12 04:15:18;;;;;;;;;4.50;4.50;;;;;21.55;55.47;101358.06;6304041;22;45899;-69
2022/07/12 04:17:44;;;;;;;;;4.75;4.75;;;;;21.55;55.17;101359.91;6304377;22;45476;-70
2022/07/12 04:20:10;;;;;;;;;6.00;6.00;;;;;21.52;55.57;101358.31;6306732;22;45457;-71
2022/07/12 04:22:35;;;;;;;;;5.25;5.25;;;;;21.50;55.60;101354.88;6305218;22;45171;-72
2022/07/12 04:25:00;;;;;;;;;7.00;7.00;;;;;21.50;55.59;101352.22;6304283;22;46204;-64
2022/07/12 04:27:29;;;;;;;;;6.50;6.50;;;;;21.50;55.31;101360.25;6304666;22;45181;-69
2022/07/12 04:29:54;;;;;;;;;8.75;5.75;;;;;21.49;55.49;101357.69;6304483;22;45214;-68
2022/07/12 04:32:19;;;;;;;;;6.00;6.00;;;;;21.50;55.69;101362.06;6304275;22;45394;-72
2022/07/12 04:34:45;;;;;;;;;6.75;5.50;;;;;21.49;55.60;101360.38;6304345;22;45386;-72
2022/07/12 04:37:10;;;;;;;;;9.25;5.75;;;;;21.49;55.42;101357.69;6304385;22;45309;-72
2022/07/12 04:39:35;;;;;;;;;7.75;7.75;;;;;21.45;55.30;101352.56;6304565;22;45326;-72
2022/07/12 04:42:01;;;;;;;;;8.75;6.25;;;;;21.49;55.71;101355.00;6304663;22;45218;-68
2022/07/12 04:44:27;;;;;;;;;7.00;7.00;;;;;21.46;55.54;101358.75;6303665;22;45846;-70
2022/07/12 04:46:52;;;;;;;;;5.50;5.50;;;;;21.47;55.54;101354.28;6305317;22;45333;-71
2022/07/12 04:49:17;;;;;;;;;8.00;8.00;;;;;21.48;56.18;101358.66;6305149;22;45341;-71
2022/07/12 04:51:43;;;;;;;;;6.50;6.50;;;;;21.43;56.07;101351.81;6304604;22;45531;-70
2022/07/12 04:54:08;;;;;;;;;6.25;6.25;;;;;21.50;56.36;101364.75;6305730;22;46277;-54
2022/07/12 04:56:34;;;;;;;;;7.75;7.00;;;;;21.52;56.04;101363.66;6277780;22;45271;-56
2022/07/12 04:58:59;;;;;;;;;7.50;7.50;;;;;21.57;55.65;101374.03;6304585;22;45281;-54
2022/07/12 05:01:25;;;;;;;;;11.75;10.50;;;;;21.60;55.80;101366.63;6304176;22;45436;-54
2022/07/12 05:03:50;;;;;;;;;10.00;7.00;;;;;21.71;55.90;101371.22;6276017;22;45418;-54
2022/07/12 05:06:16;;;;;;;;;6.75;6.75;;;;;21.96;55.67;101373.88;6276152;22;45186;-62
2022/07/12 05:08:41;;;;;;;;;9.00;7.25;;;;;22.36;54.92;101369.94;6304429;22;45227;-63
2022/07/12 05:11:07;;;;;;;;;7.75;6.25;;;;;22.79;54.01;101363.91;6303713;22;45457;-61
2022/07/12 05:13:32;;;;;;;;;8.50;7.00;;;;;23.34;53.44;101376.53;6303676;22;45249;-65
2022/07/12 05:15:58;;;;;;;;;9.75;8.00;;;;;23.81;52.52;101386.13;6303480;22;45258;-63
2022/07/12 05:18:23;;;;;;;;;8.00;8.00;;;;;24.24;51.62;101379.81;6303883;22;45131;-63
2022/07/12 05:20:48;;;;;;;;;6.25;6.25;;;;;24.72;51.12;101386.44;6304624;22;45159;-58
2022/07/12 05:23:14;;;;;;;;;6.50;6.50;;;;;25.11;49.79;101399.22;6304046;22;47217;-64
2022/07/12 05:25:39;;;;;;;;;7.75;7.75;;;;;25.40;48.61;101387.66;6304959;22;45179;-63
2022/07/12 05:28:05;;;;;;;;;8.00;8.00;;;;;25.62;48.57;101391.13;6304648;22;45533;-62
2022/07/12 05:30:31;;;;;;;;;7.50;7.50;;;;;25.75;48.41;101398.91;6303996;22;45598;-63
2022/07/12 05:32:56;;;;;;;;;7.50;7.50;;;;;25.94;47.70;101404.31;6303414;22;45361;-60
2022/07/12 05:35:21;;;;;;;;;9.00;7.75;;;;;26.06;47.36;101406.88;6304164;22;45270;-67
2022/07/12 05:37:47;;;;;;;;;8.50;8.50;;;;;26.17;46.74;101405.88;6304211;22;45269;-72
2022/07/12 05:40:12;;;;;;;;;7.00;7.00;;;;;26.25;46.41;101411.41;6305067;22;45344;-64
2022/07/12 05:42:37;;;;;;;;;7.25;6.75;;;;;26.18;46.36;101410.28;6304153;22;45361;-68
2022/07/12 05:45:04;;;;;;;;;17.00;16.75;;;;;26.14;47.14;101404.31;6303746;22;45355;-62
2022/07/12 05:47:29;;;;;;;;;9.25;7.50;;;;;26.15;46.26;101410.56;6303525;22;45303;-72
2022/07/12 05:49:55;;;;;;;;;4.00;4.00;;;;;26.15;46.25;101415.97;6304093;22;45257;-68
2022/07/12 05:55:04;;;;;;;;;7.75;7.50;;;;;25.99;46.10;101409.28;6303256;22;45254;-72
2022/07/12 05:57:30;;;;;;;;;11.50;9.75;;;;;25.89;46.34;101414.66;6303485;22;45654;-67
2022/07/12 05:59:55;;;;;;;;;10.00;9.00;;;;;25.76;46.36;101417.66;6303727;22;45327;-71
2022/07/12 06:02:21;;;;;;;;;10.25;8.50;;;;;25.59;46.90;101413.81;6303765;22;45263;-70
2022/07/12 06:04:46;;;;;;;;;9.00;8.50;;;;;25.45;47.07;101415.09;6303492;22;45195;-68
2022/07/12 06:07:11;;;;;;;;;10.50;8.25;;;;;25.28;47.42;101413.00;6304254;22;45564;-65
2022/07/12 06:09:37;;;;;;;;;11.75;10.25;;;;;25.15;47.42;101426.72;6303217;22;45096;-61
2022/07/12 06:12:03;;;;;;;;;9.50;9.00;;;;;24.94;47.76;101422.28;6274789;22;47157;-72
2022/07/12 06:14:28;;;;;;;;;13.50;11.25;;;;;24.82;47.61;101431.41;6302854;22;45215;-69
2022/07/12 06:16:53;;;;;;;;;14.00;11.00;;;;;24.69;48.36;101426.22;6303310;22;45258;-65
2022/07/12 06:19:19;;;;;;;;;9.00;9.00;;;;;24.59;47.87;101443.16;6303275;22;45471;-72
2022/07/12 06:21:44;;;;;;;;;10.75;8.50;;;;;24.46;48.51;101435.28;6301683;22;45178;-73
2022/07/12 06:24:09;;;;;;;;;17.00;11.50;;;;;24.36;49.18;101434.38;6304037;22;45160;-72
2022/07/12 06:26:35;;;;;;;;;12.75;10.00;;;;;24.29;48.63;101436.72;6304156;22;45190;-63
2022/07/12 06:29:01;;;;;;;;;12.50;11.50;;;;;24.20;48.70;101435.69;6307633;22;45467;-62
2022/07/12 06:31:26;;;;;;;;;8.50;8.50;;;;;24.16;48.83;101428.88;6302643;22;51747;-58
2022/07/12 06:33:52;;;;;;;;;9.50;8.00;;;;;24.07;48.58;101432.34;6274842;22;45328;-67
2022/07/12 06:36:17;;;;;;;;;11.75;11.75;;;;;24.04;49.08;101435.28;6304881;22;45377;-56
2022/07/12 06:38:42;;;;;;;;;13.75;13.75;;;;;24.03;49.23;101431.75;6305705;22;45266;-69
2022/07/12 06:41:07;;;;;;;;;12.50;11.25;;;;;24.04;49.44;101441.50;6303350;22;45330;-63
2022/07/12 06:43:33;;;;;;;;;8.25;8.25;;;;;24.06;49.33;101433.31;6303834;22;45199;-65
2022/07/12 06:45:58;;;;;;;;;9.25;8.00;;;;;24.03;49.50;101433.59;6303331;22;45254;-65
2022/07/12 06:48:24;;;;;;;;;10.00;10.00;;;;;24.03;49.49;101438.97;6303831;22;45183;-63
2022/07/12 06:50:49;;;;;;;;;10.50;7.25;;;;;24.03;48.94;101436.28;6303949;22;45967;-60
2022/07/12 06:53:14;;;;;;;;;9.75;9.75;;;;;24.01;49.75;101438.25;6302018;22;45340;-71
2022/07/12 06:55:42;;;;;;;;;14.25;9.75;;;;;24.00;49.13;101431.16;6302549;22;45441;-63
2022/07/12 06:58:08;;;;;;;;;13.25;10.25;;;;;23.99;49.30;101441.00;6302140;22;45834;-65
2022/07/12 07:00:33;;;;;;;;;10.75;9.00;;;;;23.97;49.69;101442.13;6301020;22;46093;-61
2022/07/12 07:02:59;;;;;;;;;7.75;7.75;;;;;23.98;49.19;101444.69;6301616;22;45341;-69
2022/07/12 07:05:24;;;;;;;;;17.00;14.25;;;;;24.00;49.72;101439.22;6301564;22;45223;-73
2022/07/12 07:07:49;;;;;;;;;14.00;10.75;;;;;24.04;49.59;101444.19;6303773;22;45269;-63
2022/07/12 07:10:15;;;;;;;;;8.25;8.25;;;;;24.06;48.99;101442.22;6303804;22;45230;-75
2022/07/12 07:12:41;;;;;;;;;10.00;9.25;;;;;24.10;49.30;101436.59;6303068;22;45401;-71
2022/07/12 07:15:07;;;;;;;;;16.00;14.00;;;;;24.15;49.64;101440.59;6301668;22;45440;-65
2022/07/12 07:17:32;;;;;;;;;7.25;4.50;;;;;24.22;49.46;101440.94;6303547;22;45301;-72
2022/07/12 07:19:57;;;;;;;;;11.50;11.50;;;;;24.25;48.80;101443.34;6276193;22;46968;-75
2022/07/12 07:22:23;;;;;;;;;12.75;11.50;;;;;24.29;49.03;101442.09;6303771;22;45409;-75
2022/07/12 07:24:48;;;;;;;;;8.75;8.75;;;;;24.31;48.51;101447.38;6305226;22;45274;-72
2022/07/12 07:27:14;;;;;;;;;12.75;10.75;;;;;24.36;48.68;101453.19;6304101;22;45536;-73
2022/07/12 07:32:23;;;;;;;;;14.00;11.50;;;;;24.52;48.51;101452.75;6302575;22;45374;-70
2022/07/12 07:34:49;;;;;;;;;10.75;10.25;;;;;24.61;48.13;101457.34;6303644;22;45327;-69
2022/07/12 07:37:15;;;;;;;;;9.00;8.50;;;;;24.72;48.43;101456.38;6304144;22;45286;-72
2022/07/12 07:39:40;;;;;;;;;16.25;16.25;;;;;24.83;48.37;101457.31;6302638;22;46210;-67
2022/07/12 07:42:06;;;;;;;;;14.75;14.75;;;;;24.86;47.42;101449.84;6300368;22;45357;-72
2022/07/12 07:44:31;;;;;;;;;12.50;12.00;;;;;24.98;47.32;101455.13;6303210;22;45706;-65
2022/07/12 07:46:56;;;;;;;;;12.75;12.75;;;;;25.08;47.19;101456.03;6303983;22;45341;-62
2022/07/12 07:49:22;;;;;;;;;10.50;10.50;;;;;25.17;46.69;101451.66;6302300;22;46919;-65
2022/07/12 07:51:47;;;;;;;;;11.75;11.75;;;;;25.26;46.67;101455.38;6302246;22;45236;-71
2022/07/12 07:54:13;;;;;;;;;11.25;10.00;;;;;25.34;46.80;101458.22;6302089;22;45293;-67
2022/07/12 07:56:38;;;;;;;;;10.50;10.25;;;;;25.42;46.63;101457.56;6305970;22;45522;-69
2022/07/12 07:59:03;;;;;;;;;13.25;11.00;;;;;25.48;46.82;101454.34;6302589;22;46080;-65
2022/07/12 08:01:52;;;;;;;;;9.50;9.50;;;;;25.55;46.47;101458.19;6304108;22;45169;-69
2022/07/12 08:04:18;;;;;;;;;13.25;13.25;;;;;25.67;46.38;101465.13;6304015;22;45290;-69
2022/07/12 08:06:44;;;;;;;;;9.00;9.00;;;;;25.77;45.72;101470.56;6303671;22;45391;-65
2022/07/12 08:09:10;;;;;;;;;6.75;6.75;;;;;25.80;46.05;101462.19;6303970;22;45316;-65
2022/07/12 08:11:36;;;;;;;;;7.00;7.00;;;;;25.87;46.35;101462.47;6305155;22;45180;-66
2022/07/12 08:14:06;;;;;;;;;12.75;8.50;;;;;25.98;46.03;101464.19;6303972;22;45191;-68
2022/07/12 08:16:32;;;;;;;;;11.00;11.00;;;;;26.03;45.75;101461.06;6304026;22;45447;-67
2022/07/12 08:18:58;;;;;;;;;6.25;6.25;;;;;26.11;45.66;101466.59;6275556;22;46336;-66
2022/07/12 08:21:24;;;;;;;;;13.75;10.00;;;;;26.18;45.62;101464.19;6303880;22;45187;-62
2022/07/12 08:23:50;;;;;;;;;9.50;7.50;;;;;26.24;45.27;101464.50;6302233;22;45274;-59
2022/07/12 08:26:15;;;;;;;;;10.00;10.00;;;;;26.29;45.13;101464.03;6303960;22;45533;-67
2022/07/12 08:28:41;;;;;;;;;7.75;7.75;;;;;26.33;45.04;101470.84;6303347;22;45170;-60
2022/07/12 08:31:07;;;;;;;;;8.00;8.00;;;;;26.40;44.86;101466.59;6301754;22;45448;-65
2022/07/12 08:33:32;;;;;;;;;8.00;6.00;;;;;26.51;44.47;101468.28;6304373;22;45248;-67
2022/07/12 08:35:57;;;;;;;;;8.25;8.25;;;;;26.60;44.62;101469.25;6276462;22;45220;-68
2022/07/12 08:38:23;;;;;;;;;7.75;7.50;;;;;26.67;44.27;101465.00;6303626;22;49101;-68
2022/07/12 08:40:48;;;;;;;;;8.50;7.50;;;;;26.73;43.68;101457.31;6304116;22;45210;-70
2022/07/12 08:43:14;;;;;;;;;7.00;7.00;;;;;26.82;43.13;101465.34;6305356;22;45171;-66
2022/07/12 08:45:40;;;;;;;;;7.75;6.75;;;;;26.87;43.13;101456.00;6306301;22;45221;-65
2022/07/12 08:48:07;;;;;;;;;9.75;8.75;;;;;26.94;43.16;101459.78;6303555;22;46317;-68
2022/07/12 08:50:32;;;;;;;;;10.50;8.50;;;;;27.01;43.41;101460.06;6303889;22;45337;-62
2022/07/12 08:52:57;;;;;;;;;8.00;7.25;;;;;27.07;42.78;101463.03;6304181;22;45723;-65
2022/07/12 08:55:31;;;;;;;;;4.25;4.25;;;;;27.18;42.58;101464.66;6304453;22;45492;-61
2022/07/12 08:57:59;;;;;;;;;7.25;7.25;;;;;27.16;42.53;101455.03;6303940;22;46228;-60
2022/07/12 09:00:26;;;;;;;;;6.75;6.75;;;;;27.22;42.49;101452.56;6303503;22;45403;-63
2022/07/12 09:03:00;;;;;;;;;7.75;6.00;;;;;27.37;41.63;101470.97;6307246;22;45175;-61
2022/07/12 09:05:28;;;;;;;;;8.00;8.00;;;;;27.48;41.57;101468.03;6304172;22;45476;-59
2022/07/12 09:08:10;;;;;;;;;8.75;6.50;;;;;27.62;41.09;101463.19;6303592;22;45411;-68
2022/07/12 09:10:58;;;;;;;;;11.25;6.50;;;;;27.76;41.68;101465.34;6303891;22;45181;-72
2022/07/12 09:13:52;;;;;;;;;8.00;6.00;;;;;27.88;40.42;101463.25;6303972;22;45325;-70
2022/07/12 09:16:23;;;;;;;;;6.75;6.75;;;;;28.01;40.67;101457.47;6303417;22;45182;-72
2022/07/12 09:18:49;;;;;;;;;9.00;8.00;;;;;28.11;40.03;101463.63;6303298;22;45308;-69
2022/07/12 09:21:27;;;;;;;;;6.50;6.50;;;;;28.21;39.42;101460.03;6303491;22;45288;-68
2022/07/12 09:23:57;;;;;;;;;8.00;6.25;;;;;28.32;39.03;101456.22;6276081;22;45186;-70
2022/07/12 09:26:33;;;;;;;;;4.00;4.00;;;;;28.46;38.43;101469.19;6303308;22;45178;-68
2022/07/12 09:29:06;;;;;;;;;8.00;6.25;;;;;28.47;38.56;101470.03;6274644;22;46913;-71
2022/07/12 09:37:18;;;;;;;;;5.25;5.25;;;;;28.71;38.02;101472.03;6303242;22;45351;-70
2022/07/12 09:39:44;;;;;;;;;4.25;3.75;;;;;28.74;37.77;101460.91;6302979;22;45245;-68
2022/07/12 09:42:12;;;;;;;;;5.50;5.50;;;;;28.84;37.55;101469.78;6302938;22;45175;-71
2022/07/12 09:44:38;;;;;;;;;6.00;5.50;;;;;28.97;37.51;101477.47;6303786;22;45288;-71
2022/07/12 09:47:06;;;;;;;;;3.50;3.50;;;;;29.05;37.39;101467.69;6303392;22;45450;-71
2022/07/12 09:49:35;;;;;;;;;7.00;7.00;;;;;29.17;36.93;101471.81;6302529;22;46005;-69
2022/07/12 09:52:02;;;;;;;;;6.00;4.75;;;;;29.19;35.57;101463.53;6274386;22;45618;-66
2022/07/12 09:54:29;;;;;;;;;6.50;5.25;;;;;29.23;36.19;101478.44;6304968;22;45238;-66
2022/07/12 09:56:58;;;;;;;;;10.00;7.00;;;;;29.25;36.24;101479.97;6303302;22;45439;-68
2022/07/12 09:59:28;;;;;;;;;9.25;9.25;;;;;29.39;35.89;101474.94;6276249;22;47325;-68
2022/07/12 10:01:58;;;;;;;;;8.50;8.50;;;;;29.34;35.70;101447.47;6303969;22;45207;-71
2022/07/12 10:04:32;;;;;;;;;6.25;5.50;;;;;29.60;35.65;101477.22;6274961;22;45434;-68
2022/07/12 10:06:58;;;;;;;;;4.00;4.00;;;;;29.65;35.40;101476.72;6303284;22;45270;-65
2022/07/12 10:09:25;;;;;;;;;4.25;4.25;;;;;29.67;35.00;101480.09;6302951;22;45814;-68
2022/07/12 10:11:52;;;;;;;;;5.25;5.25;;;;;29.69;34.65;101478.94;6302249;22;45482;-70
2022/07/12 10:14:19;;;;;;;;;5.75;4.25;;;;;29.79;33.50;101477.94;6302849;22;45328;-69
2022/07/12 10:16:45;;;;;;;;;5.25;5.25;;;;;29.83;33.18;101476.56;6275392;22;45268;-70
2022/07/12 10:19:31;;;;;;;;;3.75;3.75;;;;;29.85;33.31;101472.69;6302814;22;45264;-69
2022/07/12 10:21:58;;;;;;;;;6.25;6.25;;;;;29.90;33.99;101485.75;6300839;22;45306;-68
2022/07/12 10:24:33;;;;;;;;;11.25;11.25;;;;;29.96;33.97;101481.53;6302758;22;45330;-69
2022/07/12 10:26:59;;;;;;;;;4.50;4.50;;;;;30.03;33.82;101477.16;6302543;22;45326;-60
2022/07/12 10:29:25;;;;;;;;;8.50;8.50;;;;;30.05;33.95;101477.81;6303400;22;46105;-68
2022/07/12 10:31:52;;;;;;;;;5.25;4.25;;;;;30.07;32.93;101473.06;6302681;22;45452;-68
2022/07/12 10:34:23;;;;;;;;;6.00;6.00;;;;;30.07;33.03;101475.78;6274891;22;45380;-71
2022/07/12 10:36:54;;;;;;;;;5.50;4.75;;;;;30.09;31.57;101478.31;6275607;22;45538;-65
2022/07/12 10:39:22;;;;;;;;;7.25;6.00;;;;;30.09;32.14;101465.63;6303770;22;45298;-64
2022/07/12 10:42:06;;;;;;;;;6.50;6.00;;;;;30.20;31.42;101475.25;6278058;22;45343;-68
2022/07/12 10:44:39;;;;;;;;;2.00;2.00;;;;;30.24;30.18;101473.06;6306037;22;45132;-67
2022/07/12 10:47:07;;;;;;;;;7.00;6.00;;;;;30.30;30.46;101473.25;6304217;22;45543;-68
2022/07/12 10:49:34;;;;;;;;;5.00;3.25;;;;;30.38;30.38;101472.38;6303329;22;45383;-68
2022/07/12 10:52:11;;;;;;;;;4.25;4.25;;;;;30.43;30.44;101478.13;6304550;22;45319;-65
2022/07/12 10:55:02;;;;;;;;;3.50;3.50;;;;;30.49;30.62;101476.63;6305249;22;45312;-70
2022/07/12 10:57:43;;;;;;;;;4.25;4.00;;;;;30.56;30.74;101479.47;6288463;22;45389;-68
2022/07/12 11:00:13;;;;;;;;;3.75;3.75;;;;;30.48;29.69;101471.34;6303297;22;46025;-70
2022/07/12 11:02:39;;;;;;;;;2.00;2.00;;;;;30.43;29.70;101464.56;6304039;22;45605;-69
2022/07/12 11:05:05;;;;;;;;;3.75;3.75;;;;;30.37;27.71;101459.81;6303763;22;45185;-63
2022/07/12 11:07:31;;;;;;;;;7.00;5.25;;;;;30.40;28.68;101474.94;6304209;22;45496;-69
2022/07/12 11:09:56;;;;;;;;;7.75;6.00;;;;;30.44;28.68;101466.25;6276178;22;47854;-71
2022/07/12 11:12:29;;;;;;;;;8.25;6.50;;;;;30.54;29.08;101463.38;6275746;22;45344;-69
2022/07/12 11:14:56;;;;;;;;;6.00;6.00;;;;;30.46;29.41;101458.78;6304105;22;45278;-70
2022/07/12 11:17:32;;;;;;;;;4.00;4.00;;;;;30.43;29.69;101470.00;6304550;22;45243;-70
2022/07/12 11:20:12;;;;;;;;;7.25;7.25;;;;;30.56;29.27;101465.91;6304543;22;45360;-67
2022/07/12 11:22:40;;;;;;;;;3.75;3.75;;;;;30.66;28.50;101461.16;6303691;22;45317;-66
2022/07/12 11:25:08;;;;;;;;;3.50;3.00;;;;;30.71;28.23;101455.22;6303877;22;45183;-71
2022/07/12 11:27:35;;;;;;;;;6.00;6.00;;;;;30.73;28.29;101462.16;6304109;22;45422;-69
2022/07/12 11:30:01;;;;;;;;;4.00;3.75;;;;;30.85;28.50;101461.81;6304228;22;46163;-64
2022/07/12 11:32:34;;;;;;;;;4.75;4.75;;;;;30.93;28.37;101456.34;6304929;22;45215;-68
2022/07/12 11:35:00;;;;;;;;;5.25;5.25;;;;;31.03;28.40;101467.84;6304646;22;45353;-67